Time;durP1;ratioP1;P1;durP2;ratioP2;P2;SDS_P1;SDS_P2;PMS_P1;PMS_P2;Temp;Humidity;BMP_temperature;BMP_pressure;BME280_temperature;BME280_humidity;BME280_pressure;Samples;Min_cycle;Max_cycle;Signal;HPM_P1;HPM_P2
2023/02/04 00:00:27;;;;;;;11.70;9.03;;;7.20;99.90;;;;;;495815;239;28590;-78
2023/02/04 00:02:27;;;;;;;17.00;8.70;;;7.20;99.90;;;;;;495729;239;27901;-76
2023/02/04 00:04:28;;;;;;;13.43;9.10;;;7.20;99.90;;;;;;495780;239;28075;-77
2023/02/04 00:06:30;;;;;;;12.37;9.20;;;7.20;99.90;;;;;;495821;239;28727;-77
2023/02/04 00:08:31;;;;;;;13.83;9.60;;;7.20;99.90;;;;;;495837;239;28026;-77
2023/02/04 00:10:32;;;;;;;15.20;9.20;;;7.20;99.90;;;;;;495852;239;28821;-77
2023/02/04 00:12:33;;;;;;;17.20;9.43;;;7.20;99.90;;;;;;495791;239;27602;-76
2023/02/04 00:14:35;;;;;;;12.53;9.80;;;7.20;99.90;;;;;;495806;239;28547;-77
2023/02/04 00:16:36;;;;;;;13.67;9.97;;;7.20;99.90;;;;;;495807;239;28491;-76
2023/02/04 00:18:37;;;;;;;12.40;8.90;;;7.20;99.90;;;;;;495861;239;27499;-76
2023/02/04 00:20:38;;;;;;;14.47;9.27;;;7.20;99.90;;;;;;495870;239;28649;-76
2023/02/04 00:22:40;;;;;;;15.83;10.40;;;7.20;99.90;;;;;;495879;239;28382;-77
2023/02/04 00:24:47;;;;;;;11.43;8.87;;;7.20;99.90;;;;;;495839;239;28325;-77
2023/02/04 00:26:42;;;;;;;18.10;10.23;;;7.20;99.90;;;;;;495443;239;28052;-76
2023/02/04 00:28:43;;;;;;;12.67;8.63;;;7.20;99.90;;;;;;495822;239;27969;-76
2023/02/04 00:30:46;;;;;;;11.60;8.77;;;7.20;99.90;;;;;;495851;239;27971;-77
2023/02/04 00:32:46;;;;;;;14.03;8.90;;;7.20;99.90;;;;;;495805;239;27368;-76
2023/02/04 00:34:47;;;;;;;12.30;9.07;;;7.20;99.90;;;;;;495808;239;27811;-76
2023/02/04 00:36:48;;;;;;;15.00;9.33;;;7.20;99.90;;;;;;495761;239;27936;-76
2023/02/04 00:38:50;;;;;;;15.60;10.45;;;7.20;99.90;;;;;;495823;239;27845;-76
2023/02/04 00:40:51;;;;;;;12.60;8.90;;;7.20;99.90;;;;;;495847;239;27931;-77
2023/02/04 00:42:52;;;;;;;12.80;9.07;;;7.20;99.90;;;;;;495825;239;27345;-76
2023/02/04 00:44:53;;;;;;;12.20;9.47;;;7.20;99.90;;;;;;495813;239;27979;-78
2023/02/04 00:46:55;;;;;;;20.13;9.60;;;7.20;99.90;;;;;;495786;239;27954;-77
2023/02/04 00:48:56;;;;;;;12.00;8.63;;;7.20;99.90;;;;;;495858;239;28107;-76
2023/02/04 00:50:57;;;;;;;13.90;9.90;;;7.20;99.90;;;;;;495834;239;27933;-76
2023/02/04 00:53:00;;;;;;;14.57;9.80;;;7.20;99.90;;;;;;495795;239;27939;-76
2023/02/04 00:55:00;;;;;;;16.00;9.73;;;7.20;99.90;;;;;;495715;239;27667;-76
2023/02/04 00:57:01;;;;;;;15.23;10.17;;;7.20;99.90;;;;;;495796;239;28065;-76
2023/02/04 00:59:02;;;;;;;12.70;9.07;;;7.20;99.90;;;;;;495799;239;27836;-76
2023/02/04 01:01:03;;;;;;;13.33;10.23;;;7.20;99.90;;;;;;495841;239;28122;-76
2023/02/04 01:03:05;;;;;;;12.90;9.00;;;7.20;99.90;;;;;;495819;239;28393;-77
2023/02/04 01:05:06;;;;;;;12.07;9.57;;;7.20;99.90;;;;;;495833;239;28283;-77
2023/02/04 01:07:07;;;;;;;18.00;10.73;;;7.20;99.90;;;;;;495785;239;27779;-77
2023/02/04 01:09:09;;;;;;;15.37;10.10;;;7.20;99.90;;;;;;495812;239;27808;-76
2023/02/04 01:11:10;;;;;;;11.63;8.60;;;7.20;99.90;;;;;;495835;239;27844;-78
2023/02/04 01:13:11;;;;;;;13.87;9.10;;;7.20;99.90;;;;;;495826;239;27819;-76
2023/02/04 01:15:12;;;;;;;12.00;9.80;;;7.20;99.90;;;;;;495799;239;27740;-77
2023/02/04 01:17:13;;;;;;;12.30;9.10;;;7.20;99.90;;;;;;495818;239;27562;-76
2023/02/04 01:19:15;;;;;;;14.10;9.40;;;7.20;99.90;;;;;;495799;239;27856;-77
2023/02/04 01:21:16;;;;;;;14.20;8.67;;;7.20;99.90;;;;;;495845;239;28022;-77
2023/02/04 01:23:17;;;;;;;15.03;9.40;;;7.20;99.90;;;;;;495859;239;27820;-77
2023/02/04 01:25:18;;;;;;;15.83;9.23;;;7.20;99.90;;;;;;495852;239;28475;-74
2023/02/04 01:27:20;;;;;;;15.97;9.43;;;7.20;99.90;;;;;;495815;239;28136;-77
2023/02/04 01:29:21;;;;;;;11.63;8.93;;;7.20;99.90;;;;;;495815;239;27966;-77
2023/02/04 01:31:22;;;;;;;15.80;9.60;;;7.20;99.90;;;;;;495795;239;28062;-76
2023/02/04 01:33:23;;;;;;;11.00;8.80;;;7.20;99.90;;;;;;495884;239;28347;-76
2023/02/04 01:35:25;;;;;;;13.47;9.53;;;7.20;99.90;;;;;;495890;239;27539;-76
2023/02/04 01:37:26;;;;;;;12.68;8.73;;;7.20;99.90;;;;;;495812;239;28329;-77
2023/02/04 01:39:27;;;;;;;12.37;8.97;;;7.20;99.90;;;;;;495783;239;27620;-77
2023/02/04 01:41:28;;;;;;;13.20;9.33;;;7.20;99.90;;;;;;495858;239;27860;-76
2023/02/04 01:43:30;;;;;;;16.60;8.13;;;7.20;99.90;;;;;;495859;239;27770;-76
2023/02/04 01:45:33;;;;;;;7.27;5.10;;;7.10;99.90;;;;;;495834;239;28317;-73
2023/02/04 01:47:32;;;;;;;5.20;4.40;;;7.00;99.90;;;;;;495715;240;29282;-77
2023/02/04 01:49:33;;;;;;;4.07;3.67;;;7.00;99.90;;;;;;495807;239;28455;-74
2023/02/04 01:51:35;;;;;;;4.50;3.07;;;6.90;99.90;;;;;;495783;239;30137;-74
2023/02/04 01:53:36;;;;;;;2.60;2.40;;;6.90;99.90;;;;;;495810;239;27971;-75
2023/02/04 01:55:37;;;;;;;3.70;2.67;;;6.80;99.90;;;;;;495843;239;27848;-78
2023/02/04 01:57:38;;;;;;;2.80;2.30;;;6.80;99.90;;;;;;495814;239;28671;-77
2023/02/04 01:59:41;;;;;;;2.20;2.10;;;6.70;99.90;;;;;;495769;239;28787;-75
2023/02/04 02:01:41;;;;;;;4.25;2.85;;;6.70;99.90;;;;;;495794;239;27491;-76
2023/02/04 02:03:42;;;;;;;5.33;1.80;;;6.70;99.90;;;;;;495836;239;27400;-75
2023/02/04 02:05:43;;;;;;;5.30;2.37;;;6.70;99.90;;;;;;495794;239;27854;-73
2023/02/04 02:07:45;;;;;;;5.47;2.30;;;6.60;99.90;;;;;;495786;240;27721;-77
2023/02/04 02:09:46;;;;;;;5.60;2.40;;;6.60;99.90;;;;;;495771;239;27907;-73
2023/02/04 02:11:47;;;;;;;5.07;2.08;;;6.60;99.90;;;;;;495773;239;28197;-73
2023/02/04 02:13:48;;;;;;;5.28;2.15;;;6.60;99.90;;;;;;495853;239;27986;-74
2023/02/04 02:15:50;;;;;;;5.82;1.75;;;6.60;99.90;;;;;;495866;239;27487;-73
2023/02/04 02:17:51;;;;;;;1.73;1.58;;;6.50;99.90;;;;;;495836;239;27380;-72
2023/02/04 02:19:52;;;;;;;7.40;2.20;;;6.50;99.90;;;;;;495832;239;27597;-72
2023/02/04 02:21:54;;;;;;;2.20;1.40;;;6.50;99.90;;;;;;495838;239;27431;-74
2023/02/04 02:23:56;;;;;;;6.53;2.33;;;6.40;99.90;;;;;;495854;239;27497;-78
2023/02/04 02:25:56;;;;;;;3.00;1.30;;;6.30;99.90;;;;;;495819;239;27958;-78
2023/02/04 02:27:57;;;;;;;3.15;1.45;;;6.20;99.90;;;;;;495835;239;27877;-76
2023/02/04 02:29:59;;;;;;;9.53;1.50;;;6.20;99.90;;;;;;495685;239;27522;-75
2023/02/04 02:32:00;;;;;;;7.75;1.70;;;6.10;99.90;;;;;;495845;239;28468;-76
2023/02/04 02:34:01;;;;;;;4.45;1.80;;;6.10;99.90;;;;;;495850;239;27499;-75
2023/02/04 02:36:02;;;;;;;4.78;1.75;;;6.10;99.90;;;;;;495866;239;27499;-76
2023/02/04 02:38:04;;;;;;;2.95;1.48;;;6.00;99.90;;;;;;495847;239;27534;-76
2023/02/04 02:40:05;;;;;;;3.15;1.77;;;6.00;99.90;;;;;;495848;239;27499;-74
2023/02/04 02:42:06;;;;;;;5.37;1.70;;;6.00;99.90;;;;;;495849;239;28034;-76
2023/02/04 02:44:07;;;;;;;11.98;2.22;;;6.00;99.90;;;;;;495848;239;28054;-74
2023/02/04 02:46:09;;;;;;;5.10;2.10;;;6.00;99.90;;;;;;495897;239;27502;-76
2023/02/04 02:48:10;;;;;;;6.45;1.67;;;5.90;99.90;;;;;;495855;239;27464;-73
2023/02/04 02:50:11;;;;;;;9.50;1.77;;;6.00;99.90;;;;;;495876;239;27400;-73
2023/02/04 02:52:12;;;;;;;3.95;1.50;;;6.00;99.90;;;;;;495865;239;27456;-74
2023/02/04 02:54:14;;;;;;;4.15;1.70;;;6.00;99.90;;;;;;495816;239;27920;-75
2023/02/04 02:56:15;;;;;;;7.62;1.73;;;6.00;99.90;;;;;;495852;239;28003;-74
2023/02/04 02:58:16;;;;;;;2.75;1.40;;;6.00;99.90;;;;;;495820;239;27452;-74
2023/02/04 03:00:17;;;;;;;4.40;1.60;;;6.00;99.90;;;;;;495811;239;27392;-73
2023/02/04 03:02:20;;;;;;;2.25;1.45;;;6.00;99.90;;;;;;495830;239;27503;-78
2023/02/04 03:04:20;;;;;;;5.80;2.30;;;6.00;99.90;;;;;;495787;239;27523;-77
2023/02/04 03:06:21;;;;;;;4.62;1.50;;;6.00;99.90;;;;;;495833;239;27503;-74
2023/02/04 03:08:22;;;;;;;3.35;1.52;;;6.00;99.90;;;;;;495824;239;27967;-74
2023/02/04 03:10:24;;;;;;;5.90;1.83;;;6.00;99.90;;;;;;495836;239;27634;-73
2023/02/04 03:12:25;;;;;;;3.58;1.48;;;6.00;99.90;;;;;;495813;239;27392;-73
2023/02/04 03:14:26;;;;;;;3.87;1.83;;;6.00;99.90;;;;;;495854;239;27431;-73
2023/02/04 03:16:27;;;;;;;7.53;2.10;;;6.00;99.90;;;;;;495815;239;27515;-73
2023/02/04 03:18:30;;;;;;;2.60;1.65;;;5.90;99.90;;;;;;495835;239;27431;-78
2023/02/04 03:20:30;;;;;;;5.80;2.28;;;6.00;99.90;;;;;;495797;239;27870;-77
2023/02/04 03:22:31;;;;;;;8.98;2.30;;;5.90;99.90;;;;;;495852;239;28255;-76
2023/02/04 03:24:33;;;;;;;7.45;2.30;;;5.90;99.90;;;;;;495834;239;27348;-74
2023/02/04 03:26:34;;;;;;;5.65;1.80;;;5.90;99.90;;;;;;495815;239;27486;-74
2023/02/04 03:28:35;;;;;;;5.90;1.95;;;5.90;99.90;;;;;;495810;239;27432;-75
2023/02/04 03:30:36;;;;;;;6.95;2.10;;;5.90;99.90;;;;;;495804;239;27476;-75
2023/02/04 03:32:38;;;;;;;5.35;2.10;;;5.90;99.90;;;;;;495792;239;27578;-73
2023/02/04 03:34:39;;;;;;;7.75;2.50;;;5.90;99.90;;;;;;495827;239;27894;-77
2023/02/04 03:36:40;;;;;;;4.12;2.20;;;5.90;99.90;;;;;;495848;239;28098;-73
2023/02/04 03:38:41;;;;;;;5.12;2.05;;;5.90;99.90;;;;;;495819;239;27479;-74
2023/02/04 03:40:43;;;;;;;3.08;1.77;;;5.90;99.90;;;;;;495806;239;27495;-76
2023/02/04 03:42:44;;;;;;;2.72;2.00;;;5.90;99.90;;;;;;495805;239;27360;-75
2023/02/04 03:44:45;;;;;;;4.22;1.92;;;5.90;99.90;;;;;;495829;239;27359;-77
2023/02/04 03:46:46;;;;;;;5.50;2.20;;;5.90;99.90;;;;;;495835;239;27483;-78
2023/02/04 03:48:48;;;;;;;14.10;2.72;;;5.90;99.90;;;;;;495830;239;27980;-76
2023/02/04 03:50:49;;;;;;;5.53;2.00;;;5.80;99.90;;;;;;495804;239;28061;-77
2023/02/04 03:52:51;;;;;;;7.30;2.87;;;5.90;99.90;;;;;;495833;239;27365;-76
2023/02/04 03:54:51;;;;;;;8.50;2.40;;;5.80;99.90;;;;;;495830;239;27462;-76
2023/02/04 03:56:53;;;;;;;7.10;2.58;;;5.80;99.90;;;;;;495808;239;27399;-73
2023/02/04 03:58:54;;;;;;;10.30;2.83;;;5.80;99.90;;;;;;495797;239;27442;-77
2023/02/04 04:00:55;;;;;;;5.25;2.53;;;5.80;99.90;;;;;;495754;239;27395;-73
2023/02/04 04:02:56;;;;;;;9.18;3.25;;;5.70;99.90;;;;;;495679;239;28552;-76
2023/02/04 04:04:58;;;;;;;5.12;2.60;;;5.60;99.90;;;;;;495818;239;27812;-76
2023/02/04 04:06:59;;;;;;;7.90;2.85;;;5.60;99.90;;;;;;495822;239;27406;-77
2023/02/04 04:09:00;;;;;;;5.93;2.67;;;5.60;99.90;;;;;;495823;239;27435;-75
2023/02/04 04:11:01;;;;;;;3.65;2.50;;;5.60;99.90;;;;;;495804;239;27493;-77
2023/02/04 04:13:03;;;;;;;11.90;2.50;;;5.60;99.90;;;;;;495797;239;27351;-76
2023/02/04 04:15:04;;;;;;;6.10;2.47;;;5.60;99.90;;;;;;495810;239;27420;-76
2023/02/04 04:17:05;;;;;;;10.40;2.33;;;5.60;99.90;;;;;;495824;239;28050;-74
2023/02/04 04:19:06;;;;;;;8.80;3.33;;;5.60;99.90;;;;;;495780;239;27981;-77
2023/02/04 04:21:08;;;;;;;9.27;3.45;;;5.60;99.90;;;;;;495799;239;27491;-74
2023/02/04 04:23:09;;;;;;;8.13;2.90;;;5.60;99.90;;;;;;495800;239;27441;-76
2023/02/04 04:25:10;;;;;;;9.50;3.17;;;5.60;99.90;;;;;;495806;239;27531;-74
2023/02/04 04:27:12;;;;;;;6.50;2.67;;;5.60;99.90;;;;;;495824;239;27399;-74
2023/02/04 04:29:13;;;;;;;6.43;2.25;;;5.60;99.90;;;;;;495836;239;27365;-78
2023/02/04 04:31:14;;;;;;;8.68;2.65;;;5.60;99.90;;;;;;495821;239;28023;-74
2023/02/04 04:33:15;;;;;;;4.90;2.65;;;5.60;99.90;;;;;;495797;239;27808;-73
2023/02/04 04:35:17;;;;;;;8.15;2.60;;;5.60;99.90;;;;;;495842;239;27465;-78
2023/02/04 04:37:18;;;;;;;4.30;2.47;;;5.50;99.90;;;;;;495853;239;27479;-77
2023/02/04 04:39:19;;;;;;;7.43;3.00;;;5.60;99.90;;;;;;495748;239;27431;-73
2023/02/04 04:41:20;;;;;;;8.40;2.53;;;5.50;99.90;;;;;;495799;239;27384;-75
2023/02/04 04:43:22;;;;;;;14.75;3.42;;;5.60;99.90;;;;;;495810;239;27388;-74
2023/02/04 04:45:23;;;;;;;6.87;2.80;;;5.60;99.90;;;;;;495817;239;27949;-74
2023/02/04 04:47:24;;;;;;;5.10;2.58;;;5.50;99.90;;;;;;495837;239;27958;-77
2023/02/04 04:49:25;;;;;;;4.68;2.55;;;5.50;99.90;;;;;;495815;239;27416;-76
2023/02/04 04:51:30;;;;;;;5.28;2.25;;;5.60;99.90;;;;;;495826;239;27499;-77
2023/02/04 04:53:28;;;;;;;4.53;2.87;;;5.60;99.90;;;;;;495589;239;27357;-71
2023/02/04 04:55:29;;;;;;;7.07;3.10;;;5.50;99.90;;;;;;495818;239;27541;-73
2023/02/04 04:57:30;;;;;;;6.87;3.08;;;5.50;99.90;;;;;;495845;239;27392;-77
2023/02/04 04:59:32;;;;;;;4.80;2.33;;;5.50;99.90;;;;;;495838;239;27937;-75
2023/02/04 05:01:33;;;;;;;4.25;2.33;;;5.50;99.90;;;;;;495798;239;27937;-77
2023/02/04 05:03:34;;;;;;;5.20;2.28;;;5.50;99.90;;;;;;495810;239;27355;-74
2023/02/04 05:05:39;;;;;;;8.07;3.22;;;5.50;99.90;;;;;;495824;239;27542;-75
2023/02/04 05:07:37;;;;;;;10.13;3.00;;;5.50;99.90;;;;;;495612;239;27404;-75
2023/02/04 05:09:38;;;;;;;2.70;1.90;;;5.60;99.90;;;;;;495802;239;27348;-73
2023/02/04 05:11:39;;;;;;;7.78;2.50;;;5.50;99.90;;;;;;495799;239;27400;-74
2023/02/04 05:13:40;;;;;;;10.98;2.45;;;5.60;99.90;;;;;;495802;239;28825;-73
2023/02/04 05:15:42;;;;;;;7.70;2.70;;;5.50;99.90;;;;;;495814;239;27966;-78
2023/02/04 05:17:43;;;;;;;3.22;2.03;;;5.60;99.90;;;;;;495811;239;27388;-77
2023/02/04 05:19:44;;;;;;;2.75;2.22;;;5.60;99.90;;;;;;495801;239;27444;-77
2023/02/04 05:21:45;;;;;;;2.75;1.98;;;5.60;99.90;;;;;;495800;239;27431;-74
2023/02/04 05:23:47;;;;;;;8.57;2.40;;;5.60;99.90;;;;;;495829;239;27353;-73
2023/02/04 05:25:48;;;;;;;8.07;2.47;;;5.60;99.90;;;;;;495839;239;27432;-73
2023/02/04 05:27:49;;;;;;;6.03;2.33;;;5.60;99.90;;;;;;495871;239;27403;-78
2023/02/04 05:29:51;;;;;;;6.15;2.70;;;5.60;99.90;;;;;;495859;239;27912;-73
2023/02/04 05:31:52;;;;;;;4.60;2.08;;;5.60;99.90;;;;;;495854;239;27877;-77
2023/02/04 05:33:53;;;;;;;5.15;2.37;;;5.60;99.90;;;;;;495830;239;27356;-77
2023/02/04 05:35:54;;;;;;;4.25;2.17;;;5.60;99.90;;;;;;495814;239;27391;-76
2023/02/04 05:37:56;;;;;;;5.10;2.53;;;5.50;99.90;;;;;;495833;239;27436;-76
2023/02/04 05:39:57;;;;;;;4.30;2.20;;;5.60;99.90;;;;;;495828;239;27356;-76
2023/02/04 05:41:58;;;;;;;3.65;2.20;;;5.60;99.90;;;;;;495800;239;27399;-77
2023/02/04 05:43:59;;;;;;;3.65;2.10;;;5.50;99.90;;;;;;495794;239;27817;-76
2023/02/04 05:46:01;;;;;;;3.20;2.33;;;5.50;99.90;;;;;;495803;239;27893;-76
2023/02/04 05:48:02;;;;;;;7.53;2.60;;;5.50;99.90;;;;;;495870;239;27419;-76
2023/02/04 05:50:03;;;;;;;5.43;2.25;;;5.60;99.90;;;;;;495795;239;27434;-76
2023/02/04 05:52:04;;;;;;;4.05;2.20;;;5.50;99.90;;;;;;495762;239;27519;-73
2023/02/04 05:54:06;;;;;;;2.75;1.80;;;5.50;99.90;;;;;;495767;239;27364;-74
2023/02/04 05:56:07;;;;;;;6.72;2.62;;;5.60;99.90;;;;;;495771;239;27400;-74
2023/02/04 05:58:08;;;;;;;2.67;2.03;;;5.60;99.90;;;;;;495829;239;27895;-73
2023/02/04 06:00:09;;;;;;;2.78;1.90;;;5.60;99.90;;;;;;495811;239;27909;-77
2023/02/04 06:02:11;;;;;;;2.80;2.08;;;5.60;99.90;;;;;;495809;239;27427;-76
2023/02/04 06:04:14;;;;;;;2.15;1.95;;;5.60;99.90;;;;;;495792;239;27388;-73
2023/02/04 06:06:13;;;;;;;5.25;2.12;;;5.60;99.90;;;;;;495723;239;27452;-77
2023/02/04 06:08:15;;;;;;;3.65;1.87;;;5.60;99.90;;;;;;495835;239;27412;-77
2023/02/04 06:10:16;;;;;;;9.23;2.28;;;5.60;99.90;;;;;;495778;239;27358;-74
2023/02/04 06:12:17;;;;;;;4.65;2.65;;;5.60;99.90;;;;;;495802;239;27502;-78
2023/02/04 06:14:18;;;;;;;5.55;2.55;;;5.60;99.90;;;;;;495792;239;27856;-76
2023/02/04 06:16:19;;;;;;;5.78;2.30;;;5.50;99.90;;;;;;495799;239;27862;-76
2023/02/04 06:18:21;;;;;;;2.62;2.20;;;5.50;99.90;;;;;;495827;239;27380;-76
2023/02/04 06:20:22;;;;;;;3.62;2.12;;;5.50;99.90;;;;;;495815;239;27498;-76
2023/02/04 06:22:24;;;;;;;6.28;2.08;;;5.50;99.90;;;;;;495786;239;27403;-77
2023/02/04 06:24:24;;;;;;;3.40;2.05;;;5.50;99.90;;;;;;495710;239;27454;-76
2023/02/04 06:26:26;;;;;;;4.60;2.30;;;5.50;99.90;;;;;;495797;239;27376;-76
2023/02/04 06:28:27;;;;;;;2.30;2.10;;;5.50;99.90;;;;;;495812;239;27527;-73
2023/02/04 06:30:28;;;;;;;5.32;2.12;;;5.50;99.90;;;;;;495788;239;27918;-74
2023/02/04 06:32:29;;;;;;;3.65;2.40;;;5.50;99.90;;;;;;495800;239;27867;-73
2023/02/04 06:34:31;;;;;;;2.87;1.70;;;5.40;99.90;;;;;;495794;239;27341;-73
2023/02/04 06:36:32;;;;;;;4.18;2.47;;;5.50;99.90;;;;;;495806;239;27456;-75
2023/02/04 06:38:33;;;;;;;3.55;2.03;;;5.50;99.90;;;;;;495807;239;27386;-76
2023/02/04 06:40:35;;;;;;;4.85;2.22;;;5.50;99.90;;;;;;495799;239;27455;-73
2023/02/04 06:42:36;;;;;;;3.65;2.37;;;5.50;99.90;;;;;;495794;239;27392;-73
2023/02/04 06:44:37;;;;;;;5.37;2.15;;;5.50;99.90;;;;;;495810;239;27924;-73
2023/02/04 06:46:38;;;;;;;5.12;2.55;;;5.50;99.90;;;;;;495843;239;27812;-77
2023/02/04 06:48:40;;;;;;;5.65;2.20;;;5.50;99.90;;;;;;495839;239;27603;-75
2023/02/04 06:50:41;;;;;;;5.37;2.35;;;5.50;99.90;;;;;;495828;239;27349;-76
2023/02/04 06:52:42;;;;;;;4.40;2.15;;;5.50;99.90;;;;;;495812;239;27384;-73
2023/02/04 06:54:43;;;;;;;3.80;2.10;;;5.50;99.90;;;;;;495845;239;27419;-76
2023/02/04 06:56:45;;;;;;;2.33;2.05;;;5.50;99.90;;;;;;495888;239;27353;-77
2023/02/04 06:58:46;;;;;;;2.15;1.95;;;5.50;99.90;;;;;;495877;239;27579;-76
2023/02/04 07:00:47;;;;;;;6.15;2.25;;;5.50;99.90;;;;;;495850;239;27809;-76
2023/02/04 07:02:48;;;;;;;4.43;2.75;;;5.50;99.90;;;;;;495778;239;27978;-73
2023/02/04 07:04:50;;;;;;;5.62;2.20;;;5.50;99.90;;;;;;495815;239;27474;-73
2023/02/04 07:06:51;;;;;;;3.70;2.33;;;5.40;99.90;;;;;;495845;239;27467;-73
2023/02/04 07:08:52;;;;;;;4.05;2.60;;;5.40;99.90;;;;;;495846;239;27610;-77
2023/02/04 07:10:53;;;;;;;6.05;2.47;;;5.40;99.90;;;;;;495847;239;27539;-77
2023/02/04 07:12:55;;;;;;;10.48;2.80;;;5.40;99.90;;;;;;495787;239;27384;-74
2023/02/04 07:14:56;;;;;;;7.18;3.15;;;5.40;99.90;;;;;;495786;239;28732;-73
2023/02/04 07:16:57;;;;;;;6.70;2.87;;;5.30;99.90;;;;;;495857;239;27912;-74
2023/02/04 07:18:58;;;;;;;5.85;3.08;;;5.40;99.90;;;;;;495827;239;27408;-77
2023/02/04 07:21:00;;;;;;;6.10;3.37;;;5.40;99.90;;;;;;495808;239;27448;-76
2023/02/04 07:23:01;;;;;;;6.85;2.90;;;5.40;99.90;;;;;;495788;239;27499;-76
2023/02/04 07:25:02;;;;;;;7.80;3.10;;;5.50;99.90;;;;;;495793;239;27478;-76
2023/02/04 07:27:03;;;;;;;8.07;2.40;;;5.50;99.90;;;;;;495839;239;27356;-77
2023/02/04 07:29:05;;;;;;;3.53;2.67;;;5.50;99.90;;;;;;495841;239;27490;-77
2023/02/04 07:31:06;;;;;;;3.90;2.20;;;5.50;99.90;;;;;;495834;239;27797;-75
2023/02/04 07:33:07;;;;;;;6.35;2.78;;;5.50;99.90;;;;;;495802;239;28046;-74
2023/02/04 07:35:08;;;;;;;2.42;2.08;;;5.50;99.90;;;;;;495803;239;27342;-75
2023/02/04 07:37:10;;;;;;;5.90;2.55;;;5.50;99.90;;;;;;495836;239;27460;-73
2023/02/04 07:39:11;;;;;;;3.95;2.30;;;5.50;99.90;;;;;;495842;239;27486;-75
2023/02/04 07:41:12;;;;;;;5.32;2.15;;;5.60;99.90;;;;;;495811;239;27499;-77
2023/02/04 07:43:13;;;;;;;7.65;3.45;;;5.60;99.90;;;;;;495766;239;27420;-78
2023/02/04 07:45:15;;;;;;;5.57;2.85;;;5.60;99.90;;;;;;495772;239;27360;-77
2023/02/04 07:47:16;;;;;;;4.00;2.37;;;5.60;99.90;;;;;;495825;239;27836;-75
2023/02/04 07:49:17;;;;;;;3.42;2.97;;;5.60;99.90;;;;;;495852;239;27886;-78
2023/02/04 07:51:18;;;;;;;4.95;2.72;;;5.60;99.90;;;;;;495791;239;27496;-74
2023/02/04 07:53:20;;;;;;;8.15;2.58;;;5.60;99.90;;;;;;495804;239;27489;-73
2023/02/04 07:55:21;;;;;;;3.00;2.50;;;5.60;99.90;;;;;;495825;239;27435;-77
2023/02/04 07:57:22;;;;;;;2.72;2.15;;;5.60;99.90;;;;;;495853;239;27491;-76
2023/02/04 07:59:24;;;;;;;4.05;2.25;;;5.70;99.90;;;;;;495853;239;27509;-75
2023/02/04 08:01:25;;;;;;;8.38;2.60;;;5.70;99.90;;;;;;495855;239;27936;-73
2023/02/04 08:03:26;;;;;;;9.13;2.62;;;5.70;99.90;;;;;;495847;239;27875;-73
2023/02/04 08:05:29;;;;;;;4.43;2.28;;;5.70;99.90;;;;;;495811;239;27348;-73
2023/02/04 08:07:29;;;;;;;4.70;2.37;;;5.70;99.90;;;;;;495805;239;27503;-73
2023/02/04 08:09:30;;;;;;;5.07;2.53;;;5.70;99.90;;;;;;495868;239;27413;-75
2023/02/04 08:11:31;;;;;;;5.07;2.85;;;5.70;99.90;;;;;;495843;239;27539;-73
2023/02/04 08:13:32;;;;;;;4.53;2.40;;;5.70;99.90;;;;;;495869;239;27471;-74
2023/02/04 08:15:34;;;;;;;4.05;2.40;;;5.70;99.90;;;;;;495814;239;27861;-74
2023/02/04 08:17:35;;;;;;;3.60;2.85;;;5.70;99.90;;;;;;495866;239;27819;-77
2023/02/04 08:19:36;;;;;;;3.85;2.70;;;5.80;99.90;;;;;;495836;239;27463;-74
2023/02/04 08:21:37;;;;;;;7.95;3.78;;;5.80;99.90;;;;;;495856;239;27525;-76
2023/02/04 08:23:42;;;;;;;8.23;4.57;;;5.80;99.90;;;;;;495812;239;27523;-78
2023/02/04 08:25:40;;;;;;;9.15;4.37;;;5.90;99.90;;;;;;495637;239;27443;-77
2023/02/04 08:27:41;;;;;;;6.85;4.80;;;5.90;99.90;;;;;;495818;239;27489;-75
2023/02/04 08:29:42;;;;;;;7.07;4.62;;;5.90;99.90;;;;;;495862;239;27863;-75
2023/02/04 08:31:44;;;;;;;6.25;4.00;;;5.90;99.90;;;;;;495840;239;27887;-74
2023/02/04 08:33:45;;;;;;;8.20;3.67;;;6.00;99.90;;;;;;495820;239;27483;-77
2023/02/04 08:35:46;;;;;;;6.55;3.80;;;6.00;99.90;;;;;;495799;239;27424;-76
2023/02/04 08:37:48;;;;;;;8.57;3.87;;;6.00;99.90;;;;;;495845;239;27360;-77
2023/02/04 08:39:49;;;;;;;7.75;3.75;;;6.00;99.90;;;;;;495874;239;27385;-73
2023/02/04 08:41:50;;;;;;;12.35;4.30;;;6.10;99.90;;;;;;495787;239;27369;-73
2023/02/04 08:43:52;;;;;;;7.75;3.80;;;6.00;99.90;;;;;;495814;239;27866;-73
2023/02/04 08:45:53;;;;;;;8.57;4.10;;;6.10;99.90;;;;;;495854;239;27986;-78
2023/02/04 08:47:54;;;;;;;5.78;3.50;;;6.00;99.90;;;;;;495840;239;28782;-76
2023/02/04 08:49:55;;;;;;;10.63;4.43;;;6.10;99.90;;;;;;495832;239;27399;-73
2023/02/04 08:51:56;;;;;;;9.93;5.45;;;6.00;99.90;;;;;;495816;239;27533;-77
2023/02/04 08:53:58;;;;;;;6.43;3.87;;;6.10;99.90;;;;;;495783;239;27423;-77
2023/02/04 08:55:59;;;;;;;7.35;3.87;;;6.20;99.90;;;;;;495858;239;27523;-77
2023/02/04 08:58:01;;;;;;;9.18;4.87;;;6.20;99.90;;;;;;495877;239;27913;-77
2023/02/04 09:00:01;;;;;;;10.60;4.20;;;6.20;99.90;;;;;;495786;239;27998;-77
2023/02/04 09:02:03;;;;;;;14.77;4.30;;;6.10;99.90;;;;;;495777;239;27475;-76
2023/02/04 09:04:04;;;;;;;8.10;4.70;;;6.20;99.90;;;;;;495766;239;27423;-77
2023/02/04 09:06:05;;;;;;;7.62;4.12;;;6.20;99.90;;;;;;495843;239;28702;-77
2023/02/04 09:08:07;;;;;;;8.00;4.43;;;6.20;99.90;;;;;;495845;239;27353;-76
2023/02/04 09:10:08;;;;;;;7.32;4.00;;;6.20;99.90;;;;;;495837;239;27921;-76
2023/02/04 09:12:09;;;;;;;5.87;3.92;;;6.20;99.90;;;;;;495801;239;27903;-75
2023/02/04 09:14:10;;;;;;;10.88;4.82;;;6.30;99.90;;;;;;495778;239;27384;-73
2023/02/04 09:16:12;;;;;;;7.10;4.25;;;6.40;99.90;;;;;;495826;239;27399;-77
2023/02/04 09:18:18;;;;;;;8.43;4.70;;;6.30;99.90;;;;;;495794;239;27494;-77
2023/02/04 09:20:14;;;;;;;12.37;5.43;;;6.40;99.90;;;;;;495541;239;27491;-77
2023/02/04 09:22:15;;;;;;;6.90;4.60;;;6.40;99.90;;;;;;495809;239;28589;-76
2023/02/04 09:24:17;;;;;;;9.20;4.93;;;6.50;99.90;;;;;;495782;239;28131;-77
2023/02/04 09:26:18;;;;;;;9.40;4.60;;;6.50;99.90;;;;;;495838;239;27825;-77
2023/02/04 09:28:19;;;;;;;11.73;4.72;;;6.50;99.90;;;;;;493700;239;36309;-76
2023/02/04 09:30:20;;;;;;;13.02;5.22;;;6.50;99.90;;;;;;495879;239;28053;-77
2023/02/04 09:32:22;;;;;;;12.07;4.97;;;6.50;99.90;;;;;;495825;239;27535;-77
2023/02/04 09:34:23;;;;;;;9.07;5.30;;;6.60;99.90;;;;;;495754;239;27968;-77
2023/02/04 09:36:27;;;;;;;12.23;4.63;;;6.60;99.90;;;;;;495880;239;28213;-77
2023/02/04 09:38:25;;;;;;;10.47;4.47;;;6.70;99.90;;;;;;495741;239;27336;-77
2023/02/04 09:40:27;;;;;;;20.43;5.03;;;6.70;99.90;;;;;;495848;239;28152;-76
2023/02/04 09:42:28;;;;;;;25.50;7.07;;;6.70;99.90;;;;;;495840;239;28871;-77
2023/02/04 09:44:29;;;;;;;20.17;5.00;;;6.70;99.90;;;;;;495812;239;28530;-75
2023/02/04 09:46:30;;;;;;;8.90;4.50;;;6.50;99.90;;;;;;495844;239;28540;-77
2023/02/04 09:48:32;;;;;;;17.77;5.70;;;6.60;99.90;;;;;;495829;239;27930;-77
2023/02/04 09:50:33;;;;;;;13.23;6.27;;;6.60;99.90;;;;;;495844;239;28339;-78
2023/02/04 09:52:34;;;;;;;18.67;4.90;;;6.60;99.90;;;;;;495804;239;28171;-77
2023/02/04 09:54:37;;;;;;;13.60;5.07;;;6.60;99.90;;;;;;495787;239;28349;-76
2023/02/04 09:56:37;;;;;;;17.17;5.40;;;6.70;99.90;;;;;;495795;239;27986;-76
2023/02/04 09:58:38;;;;;;;14.23;5.30;;;6.70;99.90;;;;;;495842;239;28601;-76
2023/02/04 10:00:39;;;;;;;17.30;4.90;;;6.70;99.90;;;;;;495843;239;28064;-77
2023/02/04 10:02:40;;;;;;;11.93;5.57;;;6.60;99.90;;;;;;495795;239;28141;-76
2023/02/04 10:04:42;;;;;;;14.83;5.43;;;6.70;99.90;;;;;;495800;239;28430;-76
2023/02/04 10:06:43;;;;;;;15.53;6.00;;;6.80;99.90;;;;;;495824;239;28718;-76
2023/02/04 10:08:44;;;;;;;13.53;5.57;;;6.80;99.90;;;;;;495836;239;27803;-77
2023/02/04 10:10:45;;;;;;;12.20;5.30;;;6.80;99.90;;;;;;495856;239;27847;-77
2023/02/04 10:12:47;;;;;;;14.63;5.60;;;6.90;99.90;;;;;;495805;239;27791;-76
2023/02/04 10:14:48;;;;;;;12.57;5.10;;;6.90;99.90;;;;;;495791;239;28302;-77
2023/02/04 10:16:49;;;;;;;13.60;5.87;;;6.90;99.90;;;;;;495792;239;28389;-76
2023/02/04 10:18:50;;;;;;;18.07;5.20;;;6.60;99.90;;;;;;495827;239;28361;-76
2023/02/04 10:20:52;;;;;;;22.67;5.73;;;6.40;99.90;;;;;;495841;239;28065;-76
2023/02/04 10:22:53;;;;;;;13.43;6.13;;;6.40;99.90;;;;;;495829;239;27802;-76
2023/02/04 10:24:54;;;;;;;15.00;5.40;;;6.40;99.90;;;;;;495769;239;27771;-77
2023/02/04 10:26:55;;;;;;;18.27;5.10;;;6.50;99.90;;;;;;495783;239;27882;-76
2023/02/04 10:28:57;;;;;;;13.77;6.00;;;6.60;99.90;;;;;;495832;239;27948;-76
2023/02/04 10:30:58;;;;;;;24.00;6.70;;;6.60;99.90;;;;;;495819;239;28343;-77
2023/02/04 10:32:59;;;;;;;17.40;5.60;;;6.60;99.90;;;;;;495821;239;28013;-76
2023/02/04 10:35:00;;;;;;;16.37;5.40;;;6.50;99.90;;;;;;495828;239;27816;-76